sensor_id;sensor_type;location;lat;lon;timestamp;P1;durP1;ratioP1;P2;durP2;ratioP2
15536;SDS011;7870;52.448;13.270;2023-09-07T00:00:31;7.32;;;6.03;;
15536;SDS011;7870;52.448;13.270;2023-09-07T00:02:58;7.13;;;5.72;;
15536;SDS011;7870;52.448;13.270;2023-09-07T00:05:26;6.63;;;5.90;;
15536;SDS011;7870;52.448;13.270;2023-09-07T00:07:53;7.07;;;5.65;;
15536;SDS011;7870;52.448;13.270;2023-09-07T00:10:19;8.43;;;6.47;;
15536;SDS011;7870;52.448;13.270;2023-09-07T00:12:46;9.18;;;6.28;;
15536;SDS011;7870;52.448;13.270;2023-09-07T00:15:12;9.13;;;6.45;;
15536;SDS011;7870;52.448;13.270;2023-09-07T00:17:39;7.88;;;6.35;;
15536;SDS011;7870;52.448;13.270;2023-09-07T00:20:06;8.75;;;6.28;;
15536;SDS011;7870;52.448;13.270;2023-09-07T00:22:40;10.32;;;6.47;;
15536;SDS011;7870;52.448;13.270;2023-09-07T00:25:07;7.90;;;5.70;;
15536;SDS011;7870;52.448;13.270;2023-09-07T00:27:33;7.97;;;5.72;;
15536;SDS011;7870;52.448;13.270;2023-09-07T00:30:01;8.23;;;5.85;;
15536;SDS011;7870;52.448;13.270;2023-09-07T00:32:32;6.90;;;5.40;;
15536;SDS011;7870;52.448;13.270;2023-09-07T00:34:59;7.82;;;5.90;;
15536;SDS011;7870;52.448;13.270;2023-09-07T00:37:25;8.30;;;6.10;;
15536;SDS011;7870;52.448;13.270;2023-09-07T00:39:52;8.73;;;6.25;;
15536;SDS011;7870;52.448;13.270;2023-09-07T00:42:19;7.45;;;6.38;;
15536;SDS011;7870;52.448;13.270;2023-09-07T00:44:45;9.07;;;7.22;;
15536;SDS011;7870;52.448;13.270;2023-09-07T00:47:12;7.38;;;6.22;;
15536;SDS011;7870;52.448;13.270;2023-09-07T00:49:40;8.20;;;6.63;;
15536;SDS011;7870;52.448;13.270;2023-09-07T00:52:06;7.90;;;6.63;;
15536;SDS011;7870;52.448;13.270;2023-09-07T00:54:34;8.65;;;6.90;;
15536;SDS011;7870;52.448;13.270;2023-09-07T00:57:02;8.63;;;5.93;;
15536;SDS011;7870;52.448;13.270;2023-09-07T00:59:28;8.60;;;6.45;;
15536;SDS011;7870;52.448;13.270;2023-09-07T01:01:55;6.93;;;6.03;;
15536;SDS011;7870;52.448;13.270;2023-09-07T01:04:22;8.32;;;6.68;;
15536;SDS011;7870;52.448;13.270;2023-09-07T01:06:51;6.95;;;5.97;;
15536;SDS011;7870;52.448;13.270;2023-09-07T01:09:19;7.93;;;6.10;;
15536;SDS011;7870;52.448;13.270;2023-09-07T01:11:48;8.48;;;6.03;;
15536;SDS011;7870;52.448;13.270;2023-09-07T01:14:14;7.35;;;6.05;;
15536;SDS011;7870;52.448;13.270;2023-09-07T01:16:41;7.13;;;6.40;;
15536;SDS011;7870;52.448;13.270;2023-09-07T01:19:07;8.35;;;6.93;;
15536;SDS011;7870;52.448;13.270;2023-09-07T01:21:34;10.40;;;6.32;;
15536;SDS011;7870;52.448;13.270;2023-09-07T01:24:03;8.27;;;6.05;;
15536;SDS011;7870;52.448;13.270;2023-09-07T01:26:31;9.40;;;5.78;;
15536;SDS011;7870;52.448;13.270;2023-09-07T01:28:57;9.43;;;6.30;;
15536;SDS011;7870;52.448;13.270;2023-09-07T01:31:24;9.95;;;6.47;;
15536;SDS011;7870;52.448;13.270;2023-09-07T01:33:51;7.55;;;6.75;;
15536;SDS011;7870;52.448;13.270;2023-09-07T01:36:17;7.57;;;6.07;;
15536;SDS011;7870;52.448;13.270;2023-09-07T01:38:44;8.50;;;6.43;;
15536;SDS011;7870;52.448;13.270;2023-09-07T01:41:11;9.15;;;6.30;;
15536;SDS011;7870;52.448;13.270;2023-09-07T01:43:38;9.60;;;7.07;;
15536;SDS011;7870;52.448;13.270;2023-09-07T01:46:05;8.23;;;6.05;;
15536;SDS011;7870;52.448;13.270;2023-09-07T01:48:31;8.02;;;6.60;;
15536;SDS011;7870;52.448;13.270;2023-09-07T01:50:58;7.82;;;6.70;;
15536;SDS011;7870;52.448;13.270;2023-09-07T01:53:25;7.88;;;6.30;;
15536;SDS011;7870;52.448;13.270;2023-09-07T01:55:53;9.70;;;6.85;;
15536;SDS011;7870;52.448;13.270;2023-09-07T01:58:22;7.55;;;6.63;;
15536;SDS011;7870;52.448;13.270;2023-09-07T02:00:52;8.02;;;6.60;;
15536;SDS011;7870;52.448;13.270;2023-09-07T02:03:19;7.75;;;6.50;;
15536;SDS011;7870;52.448;13.270;2023-09-07T02:05:45;7.93;;;7.00;;
15536;SDS011;7870;52.448;13.270;2023-09-07T02:08:12;8.38;;;6.38;;
15536;SDS011;7870;52.448;13.270;2023-09-07T02:10:38;8.13;;;6.43;;
15536;SDS011;7870;52.448;13.270;2023-09-07T02:13:05;7.72;;;6.68;;
15536;SDS011;7870;52.448;13.270;2023-09-07T02:15:32;6.75;;;6.00;;
15536;SDS011;7870;52.448;13.270;2023-09-07T02:17:59;7.65;;;6.20;;
15536;SDS011;7870;52.448;13.270;2023-09-07T02:20:26;7.78;;;6.45;;
15536;SDS011;7870;52.448;13.270;2023-09-07T02:22:52;7.55;;;6.75;;
15536;SDS011;7870;52.448;13.270;2023-09-07T02:25:20;7.57;;;6.03;;
15536;SDS011;7870;52.448;13.270;2023-09-07T02:27:46;8.10;;;6.25;;
15536;SDS011;7870;52.448;13.270;2023-09-07T02:30:13;7.13;;;6.43;;
15536;SDS011;7870;52.448;13.270;2023-09-07T02:32:42;7.65;;;6.55;;
15536;SDS011;7870;52.448;13.270;2023-09-07T02:35:09;8.70;;;6.68;;
15536;SDS011;7870;52.448;13.270;2023-09-07T02:37:37;8.43;;;7.10;;
15536;SDS011;7870;52.448;13.270;2023-09-07T02:40:05;9.65;;;6.82;;
15536;SDS011;7870;52.448;13.270;2023-09-07T02:42:35;8.50;;;6.55;;
15536;SDS011;7870;52.448;13.270;2023-09-07T02:45:02;9.50;;;6.68;;
15536;SDS011;7870;52.448;13.270;2023-09-07T02:47:29;7.90;;;7.10;;
15536;SDS011;7870;52.448;13.270;2023-09-07T02:49:56;8.18;;;7.07;;
15536;SDS011;7870;52.448;13.270;2023-09-07T02:52:22;10.63;;;7.78;;
15536;SDS011;7870;52.448;13.270;2023-09-07T02:54:50;7.38;;;6.40;;
15536;SDS011;7870;52.448;13.270;2023-09-07T02:57:17;8.77;;;7.88;;
15536;SDS011;7870;52.448;13.270;2023-09-07T02:59:43;12.02;;;7.38;;
15536;SDS011;7870;52.448;13.270;2023-09-07T03:02:10;10.65;;;7.47;;
15536;SDS011;7870;52.448;13.270;2023-09-07T03:04:37;8.00;;;6.68;;
15536;SDS011;7870;52.448;13.270;2023-09-07T03:07:03;7.50;;;6.70;;
15536;SDS011;7870;52.448;13.270;2023-09-07T03:09:30;8.93;;;6.68;;
15536;SDS011;7870;52.448;13.270;2023-09-07T03:11:56;7.95;;;7.15;;
15536;SDS011;7870;52.448;13.270;2023-09-07T03:14:23;8.75;;;6.70;;
15536;SDS011;7870;52.448;13.270;2023-09-07T03:16:51;9.73;;;7.38;;
15536;SDS011;7870;52.448;13.270;2023-09-07T03:19:18;8.85;;;6.80;;
15536;SDS011;7870;52.448;13.270;2023-09-07T03:21:45;7.82;;;6.70;;
15536;SDS011;7870;52.448;13.270;2023-09-07T03:24:11;9.82;;;7.00;;
15536;SDS011;7870;52.448;13.270;2023-09-07T03:26:38;7.95;;;6.95;;
15536;SDS011;7870;52.448;13.270;2023-09-07T03:29:04;8.02;;;7.22;;
15536;SDS011;7870;52.448;13.270;2023-09-07T03:31:31;8.82;;;7.20;;
15536;SDS011;7870;52.448;13.270;2023-09-07T03:33:58;9.25;;;7.43;;
15536;SDS011;7870;52.448;13.270;2023-09-07T03:36:24;14.85;;;7.25;;
15536;SDS011;7870;52.448;13.270;2023-09-07T03:38:53;8.70;;;6.95;;
15536;SDS011;7870;52.448;13.270;2023-09-07T03:41:19;8.13;;;7.32;;
15536;SDS011;7870;52.448;13.270;2023-09-07T03:43:46;8.95;;;7.78;;
15536;SDS011;7870;52.448;13.270;2023-09-07T03:46:13;8.82;;;7.20;;
15536;SDS011;7870;52.448;13.270;2023-09-07T03:48:40;8.68;;;7.28;;
15536;SDS011;7870;52.448;13.270;2023-09-07T03:51:07;9.10;;;7.68;;
15536;SDS011;7870;52.448;13.270;2023-09-07T03:53:34;8.93;;;7.38;;
15536;SDS011;7870;52.448;13.270;2023-09-07T03:56:01;9.70;;;7.63;;
15536;SDS011;7870;52.448;13.270;2023-09-07T03:58:29;9.85;;;7.50;;
15536;SDS011;7870;52.448;13.270;2023-09-07T04:00:58;9.55;;;6.95;;
15536;SDS011;7870;52.448;13.270;2023-09-07T04:03:25;9.85;;;7.65;;
15536;SDS011;7870;52.448;13.270;2023-09-07T04:05:52;7.85;;;6.90;;
15536;SDS011;7870;52.448;13.270;2023-09-07T04:08:19;9.02;;;6.68;;
15536;SDS011;7870;52.448;13.270;2023-09-07T04:10:45;9.05;;;8.15;;
15536;SDS011;7870;52.448;13.270;2023-09-07T04:13:12;9.65;;;7.50;;
15536;SDS011;7870;52.448;13.270;2023-09-07T04:15:42;8.50;;;7.57;;
15536;SDS011;7870;52.448;13.270;2023-09-07T04:18:11;8.95;;;6.97;;
15536;SDS011;7870;52.448;13.270;2023-09-07T04:20:43;8.88;;;7.07;;
15536;SDS011;7870;52.448;13.270;2023-09-07T04:23:11;7.55;;;6.45;;
15536;SDS011;7870;52.448;13.270;2023-09-07T04:25:38;9.07;;;7.78;;
15536;SDS011;7870;52.448;13.270;2023-09-07T04:28:07;8.13;;;7.30;;
15536;SDS011;7870;52.448;13.270;2023-09-07T04:30:38;10.07;;;7.53;;
15536;SDS011;7870;52.448;13.270;2023-09-07T04:35:34;9.45;;;7.28;;
15536;SDS011;7870;52.448;13.270;2023-09-07T04:38:01;8.85;;;7.95;;
15536;SDS011;7870;52.448;13.270;2023-09-07T04:40:27;10.52;;;8.30;;
15536;SDS011;7870;52.448;13.270;2023-09-07T04:42:54;9.35;;;8.38;;
15536;SDS011;7870;52.448;13.270;2023-09-07T04:45:20;10.68;;;8.07;;
15536;SDS011;7870;52.448;13.270;2023-09-07T04:47:47;9.27;;;8.13;;
15536;SDS011;7870;52.448;13.270;2023-09-07T04:50:16;11.48;;;8.40;;
15536;SDS011;7870;52.448;13.270;2023-09-07T04:52:42;10.90;;;8.63;;
15536;SDS011;7870;52.448;13.270;2023-09-07T04:55:09;10.43;;;8.98;;
15536;SDS011;7870;52.448;13.270;2023-09-07T04:57:36;10.50;;;8.25;;
15536;SDS011;7870;52.448;13.270;2023-09-07T05:00:05;9.82;;;7.72;;
15536;SDS011;7870;52.448;13.270;2023-09-07T05:02:32;9.65;;;7.80;;
15536;SDS011;7870;52.448;13.270;2023-09-07T05:05:06;10.27;;;7.80;;
15536;SDS011;7870;52.448;13.270;2023-09-07T05:07:32;10.25;;;8.30;;
15536;SDS011;7870;52.448;13.270;2023-09-07T05:09:59;9.88;;;7.93;;
15536;SDS011;7870;52.448;13.270;2023-09-07T05:12:29;9.57;;;7.60;;
15536;SDS011;7870;52.448;13.270;2023-09-07T05:14:56;8.57;;;7.57;;
15536;SDS011;7870;52.448;13.270;2023-09-07T05:17:23;9.70;;;7.15;;
15536;SDS011;7870;52.448;13.270;2023-09-07T05:19:50;8.82;;;7.43;;
15536;SDS011;7870;52.448;13.270;2023-09-07T05:22:16;8.57;;;7.15;;
15536;SDS011;7870;52.448;13.270;2023-09-07T05:24:43;9.15;;;7.40;;
15536;SDS011;7870;52.448;13.270;2023-09-07T05:27:13;8.00;;;7.20;;
15536;SDS011;7870;52.448;13.270;2023-09-07T05:29:39;9.98;;;7.43;;
15536;SDS011;7870;52.448;13.270;2023-09-07T05:32:06;8.13;;;7.32;;
15536;SDS011;7870;52.448;13.270;2023-09-07T05:34:33;9.98;;;7.45;;
15536;SDS011;7870;52.448;13.270;2023-09-07T05:37:00;8.82;;;6.70;;
15536;SDS011;7870;52.448;13.270;2023-09-07T05:39:27;12.20;;;6.82;;
15536;SDS011;7870;52.448;13.270;2023-09-07T05:41:53;8.73;;;7.07;;
15536;SDS011;7870;52.448;13.270;2023-09-07T05:44:20;7.68;;;6.82;;
15536;SDS011;7870;52.448;13.270;2023-09-07T05:46:46;9.07;;;7.47;;
15536;SDS011;7870;52.448;13.270;2023-09-07T05:49:14;9.75;;;6.82;;
15536;SDS011;7870;52.448;13.270;2023-09-07T05:51:41;12.65;;;8.23;;
15536;SDS011;7870;52.448;13.270;2023-09-07T05:54:07;8.52;;;6.97;;
15536;SDS011;7870;52.448;13.270;2023-09-07T05:56:34;8.45;;;6.95;;
15536;SDS011;7870;52.448;13.270;2023-09-07T05:59:01;9.57;;;7.97;;
15536;SDS011;7870;52.448;13.270;2023-09-07T06:01:27;8.75;;;7.85;;
15536;SDS011;7870;52.448;13.270;2023-09-07T06:03:54;10.15;;;7.78;;
15536;SDS011;7870;52.448;13.270;2023-09-07T06:06:21;10.65;;;8.10;;
15536;SDS011;7870;52.448;13.270;2023-09-07T06:08:48;13.52;;;7.78;;
15536;SDS011;7870;52.448;13.270;2023-09-07T06:11:14;10.93;;;7.50;;
15536;SDS011;7870;52.448;13.270;2023-09-07T06:13:41;10.32;;;6.03;;
15536;SDS011;7870;52.448;13.270;2023-09-07T06:16:08;9.05;;;6.18;;
15536;SDS011;7870;52.448;13.270;2023-09-07T06:18:34;9.30;;;6.22;;
15536;SDS011;7870;52.448;13.270;2023-09-07T06:21:01;8.13;;;5.50;;
15536;SDS011;7870;52.448;13.270;2023-09-07T06:23:28;9.80;;;5.63;;
15536;SDS011;7870;52.448;13.270;2023-09-07T06:25:55;11.07;;;6.07;;
15536;SDS011;7870;52.448;13.270;2023-09-07T06:28:21;7.63;;;5.90;;
15536;SDS011;7870;52.448;13.270;2023-09-07T06:30:48;8.60;;;5.72;;
15536;SDS011;7870;52.448;13.270;2023-09-07T06:33:16;10.93;;;6.68;;
15536;SDS011;7870;52.448;13.270;2023-09-07T06:35:43;8.90;;;5.57;;
15536;SDS011;7870;52.448;13.270;2023-09-07T06:38:10;10.25;;;6.03;;
15536;SDS011;7870;52.448;13.270;2023-09-07T06:40:41;7.47;;;5.37;;
15536;SDS011;7870;52.448;13.270;2023-09-07T06:43:07;7.38;;;5.00;;
15536;SDS011;7870;52.448;13.270;2023-09-07T06:45:36;8.27;;;5.18;;
15536;SDS011;7870;52.448;13.270;2023-09-07T06:48:03;9.45;;;5.35;;
15536;SDS011;7870;52.448;13.270;2023-09-07T06:50:30;7.90;;;5.50;;
15536;SDS011;7870;52.448;13.270;2023-09-07T06:52:56;7.90;;;5.30;;
15536;SDS011;7870;52.448;13.270;2023-09-07T06:55:23;5.35;;;4.45;;
15536;SDS011;7870;52.448;13.270;2023-09-07T06:57:50;7.45;;;4.80;;
15536;SDS011;7870;52.448;13.270;2023-09-07T07:00:16;7.13;;;4.35;;
15536;SDS011;7870;52.448;13.270;2023-09-07T07:02:43;8.55;;;4.57;;
15536;SDS011;7870;52.448;13.270;2023-09-07T07:05:10;6.95;;;5.20;;
15536;SDS011;7870;52.448;13.270;2023-09-07T07:07:38;6.43;;;4.60;;
15536;SDS011;7870;52.448;13.270;2023-09-07T07:10:05;6.57;;;4.70;;
15536;SDS011;7870;52.448;13.270;2023-09-07T07:12:35;6.85;;;5.05;;
15536;SDS011;7870;52.448;13.270;2023-09-07T07:15:05;9.55;;;4.82;;
15536;SDS011;7870;52.448;13.270;2023-09-07T07:17:31;8.00;;;4.45;;
15536;SDS011;7870;52.448;13.270;2023-09-07T07:19:58;8.82;;;4.53;;
15536;SDS011;7870;52.448;13.270;2023-09-07T07:22:25;7.15;;;4.60;;
15536;SDS011;7870;52.448;13.270;2023-09-07T07:24:52;5.85;;;4.38;;
15536;SDS011;7870;52.448;13.270;2023-09-07T07:27:20;10.65;;;5.30;;
15536;SDS011;7870;52.448;13.270;2023-09-07T07:29:47;6.25;;;4.15;;
15536;SDS011;7870;52.448;13.270;2023-09-07T07:32:14;8.98;;;4.57;;
15536;SDS011;7870;52.448;13.270;2023-09-07T07:34:41;10.48;;;4.68;;
15536;SDS011;7870;52.448;13.270;2023-09-07T07:37:09;11.07;;;4.93;;
15536;SDS011;7870;52.448;13.270;2023-09-07T07:39:36;7.75;;;4.03;;
15536;SDS011;7870;52.448;13.270;2023-09-07T07:42:03;8.45;;;4.07;;
15536;SDS011;7870;52.448;13.270;2023-09-07T07:44:33;5.10;;;3.83;;
15536;SDS011;7870;52.448;13.270;2023-09-07T07:47:01;7.55;;;4.20;;
15536;SDS011;7870;52.448;13.270;2023-09-07T07:49:28;8.65;;;4.60;;
15536;SDS011;7870;52.448;13.270;2023-09-07T07:51:55;9.80;;;4.50;;
15536;SDS011;7870;52.448;13.270;2023-09-07T07:54:24;6.78;;;4.70;;
15536;SDS011;7870;52.448;13.270;2023-09-07T07:56:52;6.60;;;4.03;;
15536;SDS011;7870;52.448;13.270;2023-09-07T07:59:19;8.50;;;4.63;;
15536;SDS011;7870;52.448;13.270;2023-09-07T08:01:46;8.20;;;4.05;;
15536;SDS011;7870;52.448;13.270;2023-09-07T08:04:13;6.47;;;4.32;;
15536;SDS011;7870;52.448;13.270;2023-09-07T08:06:40;6.25;;;4.15;;
15536;SDS011;7870;52.448;13.270;2023-09-07T08:09:07;6.40;;;4.00;;
15536;SDS011;7870;52.448;13.270;2023-09-07T08:11:34;5.88;;;3.60;;
15536;SDS011;7870;52.448;13.270;2023-09-07T08:14:01;5.75;;;4.30;;
15536;SDS011;7870;52.448;13.270;2023-09-07T08:16:28;7.35;;;4.13;;
15536;SDS011;7870;52.448;13.270;2023-09-07T08:18:55;6.78;;;4.22;;
15536;SDS011;7870;52.448;13.270;2023-09-07T08:21:22;6.55;;;4.60;;
15536;SDS011;7870;52.448;13.270;2023-09-07T08:23:48;5.95;;;4.03;;
15536;SDS011;7870;52.448;13.270;2023-09-07T08:26:15;8.88;;;3.92;;
15536;SDS011;7870;52.448;13.270;2023-09-07T08:28:44;10.48;;;4.32;;
15536;SDS011;7870;52.448;13.270;2023-09-07T08:31:12;6.88;;;4.55;;
15536;SDS011;7870;52.448;13.270;2023-09-07T08:33:40;5.15;;;3.95;;
15536;SDS011;7870;52.448;13.270;2023-09-07T08:36:07;6.25;;;4.07;;
15536;SDS011;7870;52.448;13.270;2023-09-07T08:38:34;6.35;;;3.90;;
15536;SDS011;7870;52.448;13.270;2023-09-07T08:41:01;7.63;;;3.85;;
15536;SDS011;7870;52.448;13.270;2023-09-07T08:43:32;10.02;;;4.32;;
15536;SDS011;7870;52.448;13.270;2023-09-07T08:46:04;10.00;;;4.78;;
15536;SDS011;7870;52.448;13.270;2023-09-07T08:48:41;7.70;;;4.22;;
15536;SDS011;7870;52.448;13.270;2023-09-07T08:51:09;6.95;;;4.00;;
15536;SDS011;7870;52.448;13.270;2023-09-07T08:53:38;8.00;;;4.28;;
15536;SDS011;7870;52.448;13.270;2023-09-07T08:56:05;7.47;;;4.53;;
15536;SDS011;7870;52.448;13.270;2023-09-07T09:01:02;8.05;;;3.63;;
15536;SDS011;7870;52.448;13.270;2023-09-07T09:03:32;6.45;;;3.80;;
15536;SDS011;7870;52.448;13.270;2023-09-07T09:06:00;6.78;;;4.00;;
15536;SDS011;7870;52.448;13.270;2023-09-07T09:08:28;4.40;;;3.17;;
15536;SDS011;7870;52.448;13.270;2023-09-07T09:10:58;6.90;;;3.70;;
15536;SDS011;7870;52.448;13.270;2023-09-07T09:13:27;4.75;;;3.40;;
15536;SDS011;7870;52.448;13.270;2023-09-07T09:15:54;5.68;;;3.50;;
15536;SDS011;7870;52.448;13.270;2023-09-07T09:18:21;7.85;;;3.78;;
15536;SDS011;7870;52.448;13.270;2023-09-07T09:20:48;6.65;;;3.92;;
15536;SDS011;7870;52.448;13.270;2023-09-07T09:23:14;7.05;;;3.90;;
15536;SDS011;7870;52.448;13.270;2023-09-07T09:25:41;5.13;;;3.15;;
15536;SDS011;7870;52.448;13.270;2023-09-07T09:28:09;5.80;;;3.00;;
15536;SDS011;7870;52.448;13.270;2023-09-07T09:30:37;4.60;;;3.38;;
15536;SDS011;7870;52.448;13.270;2023-09-07T09:33:03;4.40;;;3.13;;
15536;SDS011;7870;52.448;13.270;2023-09-07T09:35:32;7.50;;;3.15;;
15536;SDS011;7870;52.448;13.270;2023-09-07T09:38:01;8.30;;;3.53;;
15536;SDS011;7870;52.448;13.270;2023-09-07T09:40:31;5.88;;;3.50;;
15536;SDS011;7870;52.448;13.270;2023-09-07T09:42:58;4.60;;;3.58;;
15536;SDS011;7870;52.448;13.270;2023-09-07T09:45:26;5.88;;;3.90;;
15536;SDS011;7870;52.448;13.270;2023-09-07T09:47:53;7.30;;;3.45;;
15536;SDS011;7870;52.448;13.270;2023-09-07T09:50:22;8.23;;;3.63;;
15536;SDS011;7870;52.448;13.270;2023-09-07T09:52:49;6.85;;;3.75;;
15536;SDS011;7870;52.448;13.270;2023-09-07T09:55:19;7.73;;;3.70;;
15536;SDS011;7870;52.448;13.270;2023-09-07T09:57:46;5.80;;;3.13;;
15536;SDS011;7870;52.448;13.270;2023-09-07T10:00:12;5.75;;;3.65;;
15536;SDS011;7870;52.448;13.270;2023-09-07T10:02:54;5.40;;;3.88;;
15536;SDS011;7870;52.448;13.270;2023-09-07T10:05:25;6.68;;;3.63;;
15536;SDS011;7870;52.448;13.270;2023-09-07T10:07:52;5.68;;;3.28;;
15536;SDS011;7870;52.448;13.270;2023-09-07T10:10:19;4.35;;;3.47;;
15536;SDS011;7870;52.448;13.270;2023-09-07T10:12:52;4.60;;;3.50;;
15536;SDS011;7870;52.448;13.270;2023-09-07T10:15:22;6.05;;;3.80;;
15536;SDS011;7870;52.448;13.270;2023-09-07T10:18:01;5.70;;;3.92;;
15536;SDS011;7870;52.448;13.270;2023-09-07T10:20:46;6.30;;;3.63;;
15536;SDS011;7870;52.448;13.270;2023-09-07T10:23:14;5.95;;;3.53;;
15536;SDS011;7870;52.448;13.270;2023-09-07T10:25:41;7.15;;;4.13;;
15536;SDS011;7870;52.448;13.270;2023-09-07T10:28:20;4.72;;;3.40;;
15536;SDS011;7870;52.448;13.270;2023-09-07T10:30:58;6.00;;;3.70;;
15536;SDS011;7870;52.448;13.270;2023-09-07T10:33:25;7.25;;;3.83;;
15536;SDS011;7870;52.448;13.270;2023-09-07T10:35:52;5.63;;;3.65;;
15536;SDS011;7870;52.448;13.270;2023-09-07T10:38:19;6.15;;;3.90;;
15536;SDS011;7870;52.448;13.270;2023-09-07T10:40:48;5.57;;;3.60;;
15536;SDS011;7870;52.448;13.270;2023-09-07T10:43:26;5.57;;;3.97;;
15536;SDS011;7870;52.448;13.270;2023-09-07T10:45:54;5.20;;;3.35;;
15536;SDS011;7870;52.448;13.270;2023-09-07T10:48:22;6.22;;;3.97;;
15536;SDS011;7870;52.448;13.270;2023-09-07T10:50:49;6.15;;;3.70;;
15536;SDS011;7870;52.448;13.270;2023-09-07T10:53:25;6.82;;;3.50;;
15536;SDS011;7870;52.448;13.270;2023-09-07T10:55:54;5.25;;;3.55;;
15536;SDS011;7870;52.448;13.270;2023-09-07T10:58:25;4.60;;;3.63;;
15536;SDS011;7870;52.448;13.270;2023-09-07T11:00:56;4.85;;;3.25;;
15536;SDS011;7870;52.448;13.270;2023-09-07T11:03:25;6.72;;;3.50;;
15536;SDS011;7870;52.448;13.270;2023-09-07T11:05:54;6.43;;;3.42;;
15536;SDS011;7870;52.448;13.270;2023-09-07T11:08:24;7.35;;;3.65;;
15536;SDS011;7870;52.448;13.270;2023-09-07T11:10:51;4.97;;;3.28;;
15536;SDS011;7870;52.448;13.270;2023-09-07T11:13:18;4.97;;;2.80;;
15536;SDS011;7870;52.448;13.270;2023-09-07T11:15:45;5.10;;;3.20;;
15536;SDS011;7870;52.448;13.270;2023-09-07T11:18:12;6.53;;;3.20;;
15536;SDS011;7870;52.448;13.270;2023-09-07T11:20:39;4.93;;;3.22;;
15536;SDS011;7870;52.448;13.270;2023-09-07T11:23:06;6.15;;;3.30;;
15536;SDS011;7870;52.448;13.270;2023-09-07T11:25:36;6.60;;;3.45;;
15536;SDS011;7870;52.448;13.270;2023-09-07T11:28:07;5.03;;;2.90;;
15536;SDS011;7870;52.448;13.270;2023-09-07T11:30:48;4.55;;;2.75;;
15536;SDS011;7870;52.448;13.270;2023-09-07T11:33:16;4.03;;;2.63;;
15536;SDS011;7870;52.448;13.270;2023-09-07T11:35:43;13.60;;;3.97;;
15536;SDS011;7870;52.448;13.270;2023-09-07T11:38:12;5.75;;;2.80;;
15536;SDS011;7870;52.448;13.270;2023-09-07T11:40:39;3.50;;;2.85;;
15536;SDS011;7870;52.448;13.270;2023-09-07T11:43:09;5.18;;;2.65;;
15536;SDS011;7870;52.448;13.270;2023-09-07T11:45:35;7.45;;;2.88;;
15536;SDS011;7870;52.448;13.270;2023-09-07T11:48:03;3.60;;;2.70;;
15536;SDS011;7870;52.448;13.270;2023-09-07T11:50:30;4.45;;;2.63;;
15536;SDS011;7870;52.448;13.270;2023-09-07T11:52:57;6.35;;;3.03;;
15536;SDS011;7870;52.448;13.270;2023-09-07T11:55:24;5.10;;;2.80;;
15536;SDS011;7870;52.448;13.270;2023-09-07T11:57:54;6.00;;;2.78;;
15536;SDS011;7870;52.448;13.270;2023-09-07T12:00:21;4.80;;;3.28;;
15536;SDS011;7870;52.448;13.270;2023-09-07T12:02:48;3.83;;;2.78;;
15536;SDS011;7870;52.448;13.270;2023-09-07T12:05:15;6.80;;;3.17;;
15536;SDS011;7870;52.448;13.270;2023-09-07T12:07:42;4.20;;;2.90;;
15536;SDS011;7870;52.448;13.270;2023-09-07T12:10:11;3.80;;;2.83;;
15536;SDS011;7870;52.448;13.270;2023-09-07T12:12:40;6.95;;;3.15;;
15536;SDS011;7870;52.448;13.270;2023-09-07T12:15:07;4.90;;;3.20;;
15536;SDS011;7870;52.448;13.270;2023-09-07T12:17:34;5.15;;;3.15;;
15536;SDS011;7870;52.448;13.270;2023-09-07T12:20:00;6.30;;;2.95;;
15536;SDS011;7870;52.448;13.270;2023-09-07T12:22:27;3.55;;;2.70;;
15536;SDS011;7870;52.448;13.270;2023-09-07T12:24:55;3.67;;;2.67;;
15536;SDS011;7870;52.448;13.270;2023-09-07T12:27:39;4.30;;;2.90;;
15536;SDS011;7870;52.448;13.270;2023-09-07T12:30:20;8.88;;;2.60;;
15536;SDS011;7870;52.448;13.270;2023-09-07T12:32:48;4.20;;;2.70;;
15536;SDS011;7870;52.448;13.270;2023-09-07T12:35:15;3.67;;;2.55;;
15536;SDS011;7870;52.448;13.270;2023-09-07T12:37:42;4.18;;;2.70;;
15536;SDS011;7870;52.448;13.270;2023-09-07T12:40:09;5.05;;;2.78;;
15536;SDS011;7870;52.448;13.270;2023-09-07T12:42:39;8.38;;;2.90;;
15536;SDS011;7870;52.448;13.270;2023-09-07T12:45:08;4.50;;;2.75;;
15536;SDS011;7870;52.448;13.270;2023-09-07T12:47:35;3.58;;;2.58;;
15536;SDS011;7870;52.448;13.270;2023-09-07T12:50:02;4.13;;;2.85;;
15536;SDS011;7870;52.448;13.270;2023-09-07T12:52:29;4.22;;;2.80;;
15536;SDS011;7870;52.448;13.270;2023-09-07T12:54:58;4.68;;;2.63;;
15536;SDS011;7870;52.448;13.270;2023-09-07T12:57:25;4.28;;;2.45;;
15536;SDS011;7870;52.448;13.270;2023-09-07T12:59:52;4.70;;;2.83;;
15536;SDS011;7870;52.448;13.270;2023-09-07T13:02:18;10.57;;;3.40;;
15536;SDS011;7870;52.448;13.270;2023-09-07T13:04:45;6.50;;;2.85;;
15536;SDS011;7870;52.448;13.270;2023-09-07T13:07:11;13.23;;;2.92;;
15536;SDS011;7870;52.448;13.270;2023-09-07T13:09:39;5.70;;;2.53;;
15536;SDS011;7870;52.448;13.270;2023-09-07T13:12:06;6.53;;;2.78;;
15536;SDS011;7870;52.448;13.270;2023-09-07T13:14:33;3.90;;;2.75;;
15536;SDS011;7870;52.448;13.270;2023-09-07T13:17:00;4.50;;;2.78;;
15536;SDS011;7870;52.448;13.270;2023-09-07T13:19:29;3.95;;;2.50;;
15536;SDS011;7870;52.448;13.270;2023-09-07T13:21:55;5.30;;;2.90;;
15536;SDS011;7870;52.448;13.270;2023-09-07T13:24:22;4.10;;;2.95;;
15536;SDS011;7870;52.448;13.270;2023-09-07T13:26:50;4.35;;;2.95;;
15536;SDS011;7870;52.448;13.270;2023-09-07T13:29:17;6.63;;;3.03;;
15536;SDS011;7870;52.448;13.270;2023-09-07T13:31:43;3.92;;;2.65;;
15536;SDS011;7870;52.448;13.270;2023-09-07T13:34:10;5.03;;;2.80;;
15536;SDS011;7870;52.448;13.270;2023-09-07T13:36:36;5.10;;;2.50;;
15536;SDS011;7870;52.448;13.270;2023-09-07T13:39:03;6.60;;;2.72;;
15536;SDS011;7870;52.448;13.270;2023-09-07T13:41:30;4.13;;;2.40;;
15536;SDS011;7870;52.448;13.270;2023-09-07T13:43:57;6.10;;;2.58;;
15536;SDS011;7870;52.448;13.270;2023-09-07T13:46:25;4.88;;;2.85;;
15536;SDS011;7870;52.448;13.270;2023-09-07T13:48:52;4.50;;;2.90;;
15536;SDS011;7870;52.448;13.270;2023-09-07T13:51:18;3.10;;;2.30;;
15536;SDS011;7870;52.448;13.270;2023-09-07T13:53:45;4.03;;;2.88;;
15536;SDS011;7870;52.448;13.270;2023-09-07T13:56:12;5.22;;;3.03;;
15536;SDS011;7870;52.448;13.270;2023-09-07T13:58:38;8.10;;;3.10;;
15536;SDS011;7870;52.448;13.270;2023-09-07T14:01:05;7.22;;;3.45;;
15536;SDS011;7870;52.448;13.270;2023-09-07T14:03:32;7.22;;;3.05;;
15536;SDS011;7870;52.448;13.270;2023-09-07T14:05:59;9.85;;;3.30;;
15536;SDS011;7870;52.448;13.270;2023-09-07T14:08:26;6.32;;;3.38;;
15536;SDS011;7870;52.448;13.270;2023-09-07T14:10:53;7.00;;;3.42;;
15536;SDS011;7870;52.448;13.270;2023-09-07T14:13:19;5.85;;;3.65;;
15536;SDS011;7870;52.448;13.270;2023-09-07T14:15:46;5.18;;;3.50;;
15536;SDS011;7870;52.448;13.270;2023-09-07T14:18:12;5.07;;;3.30;;
15536;SDS011;7870;52.448;13.270;2023-09-07T14:20:39;5.93;;;3.05;;
15536;SDS011;7870;52.448;13.270;2023-09-07T14:23:06;7.45;;;3.25;;
15536;SDS011;7870;52.448;13.270;2023-09-07T14:25:32;5.20;;;2.90;;
15536;SDS011;7870;52.448;13.270;2023-09-07T14:27:59;4.35;;;2.72;;
15536;SDS011;7870;52.448;13.270;2023-09-07T14:30:26;4.72;;;2.35;;
15536;SDS011;7870;52.448;13.270;2023-09-07T14:32:52;4.53;;;2.60;;
15536;SDS011;7870;52.448;13.270;2023-09-07T14:35:19;6.45;;;2.90;;
15536;SDS011;7870;52.448;13.270;2023-09-07T14:37:45;4.85;;;2.90;;
15536;SDS011;7870;52.448;13.270;2023-09-07T14:40:12;7.22;;;4.00;;
15536;SDS011;7870;52.448;13.270;2023-09-07T14:42:39;6.82;;;3.17;;
15536;SDS011;7870;52.448;13.270;2023-09-07T14:45:06;6.80;;;3.22;;
15536;SDS011;7870;52.448;13.270;2023-09-07T14:47:33;3.60;;;2.50;;
15536;SDS011;7870;52.448;13.270;2023-09-07T14:49:59;3.63;;;2.70;;
15536;SDS011;7870;52.448;13.270;2023-09-07T14:52:26;4.38;;;3.00;;